Paul R Tregurtha — WYR4481 — position and weather

sailwx.info

Track history (hours):
 
Tides and Currents Weather Stations Pressure Air Temp Water Temp Dewpoint Dewpoint Depression Visibility Wind Speed Wind Dir Waves Ship Positions

Paul R Tregurtha

More information available from US FCC via Universal Licensing System and Coast Guard Vessel Documentation Center.

Last reported at 2014-Sep-21 04:00 UTC. Time now 2014-Sep-21 06:02 UTC.
Position N 46°48' W 092°06'.

Length 308 m; draft 6.4 m.

Type: Cargo ship. MMSI: 366904940.

Wind from 280 at 5 knots

Barometer 1007.1 mb
Air temperature 13.5 ° C
Water temperature 14.2 ° C

Date/timePositionNaut miles runAvg speedWind from/ knotsBaromVisibWave heightAir tempDewpointWater temp
2014-Sep-21 04:00N 46°48' W 092°06'0 0.0 280 / 51007.1 13.5 14.2
2014-Sep-21 03:00N 46°48' W 092°06'0 0.0 260 / 21006.8 13.5 14.3
2014-Sep-21 02:00N 46°48' W 092°06'0 0.0 220 / 51006.8 13.7 14.3
2014-Sep-21 01:00N 46°48' W 092°06'0 0.0 200 / 41006.4 13.8 14.2
2014-Sep-21 00:00N 46°48' W 092°06'0 0.0 290 / 151005.8 15.1 14.0
2014-Sep-20 23:00N 46°48' W 092°06'0 0.0 280 / 51006.1 19.3 15.3
2014-Sep-20 22:00N 46°48' W 092°06'0 0.0 260 / 51005.8 20.5 15.4
2014-Sep-20 21:00N 46°48' W 092°06'0 0.0 260 / 101006.4 20.7 15.2
2014-Sep-20 20:00N 46°48' W 092°06'6 3.0 260 / 81006.8 20.9 14.0
2014-Sep-20 18:00N 46°42' W 092°06'0 0.0 260 / 91007.8 19.5 15.0
2014-Sep-20 16:00N 46°42' W 092°06'0 0.0 300 / 161007.8 17.3 14.9
2014-Sep-20 15:00N 46°42' W 092°06'0 0.0 290 / 161007.5 17.5 15.0
2014-Sep-20 13:00N 46°42' W 092°06'0 0.0 1005.8 18.3 14.9
2014-Sep-20 11:00N 46°42' W 092°06'0 0.0 270 / 121003.4 19.1 14.8
2014-Sep-20 10:00N 46°42' W 092°06'0 0.0 230 / 71002.7 19.2 14.8
2014-Sep-20 09:00N 46°42' W 092°06'7 3.6 230 / 81002.4 18.7 14.8
2014-Sep-20 07:00N 46°48' W 092°00'1413.7 200 / 21003.0 16.1 13.1
2014-Sep-20 06:00N 46°54' W 091°42'1413.7 190 / 151003.0 17.0 14.0
2014-Sep-20 05:00N 47°00' W 091°24'2512.6 190 / 141003.0 15.9 12.3
2014-Sep-20 03:00N 47°06' W 090°48'1413.6 190 / 101003.7 14.1 11.5
2014-Sep-20 02:00N 47°12' W 090°30'6212.4 180 / 51004.1 12.9 10.9
2014-Sep-19 21:00N 47°24' W 089°00'1212.2 220 / 131005.110.8 1.012.5 7.9
2014-Sep-19 20:00N 47°24' W 088°42'1413.6 190 / 181005.8 12.6 8.5
2014-Sep-19 19:00N 47°30' W 088°24'1212.2 190 / 181006.4 15.5 8.4
2014-Sep-19 18:00N 47°30' W 088°06'1616.2 180 / 141009.1 16.9 8.5
2014-Sep-19 17:00N 47°30' W 087°42'11412.7 150 / 191011.2 11.6 8.6
2014-Sep-19 08:00N 46°48' W 085°06'2412.2 160 / 231022.0 8.7 12.1
2014-Sep-19 06:00N 46°30' W 084°42'813.4 140 / 161022.7 8.8 14.6
2014-Sep-19 05:23N 46°27' W 084°31'6 4.0
2014-Sep-19 04:00N 46°30' W 084°24'10 5.1 130 / 21024.7 7.0 14.6
2014-Sep-19 02:00N 46°24' W 084°12'40 9.9 150 / 91023.5 8.1 14.5
2014-Sep-18 22:00N 45°48' W 083°48'1514.6 120 / 81023.5 8.5 14.0
2014-Sep-18 21:00N 45°36' W 083°36'1514.7 120 / 61023.5 8.2 12.9
2014-Sep-18 20:00N 45°24' W 083°24'2211.0 020 / 61023.8 8.0 12.5
2014-Sep-18 18:00N 45°06' W 083°06'1312.7 030 / 51024.2 8.4 12.4
2014-Sep-18 17:00N 44°54' W 083°00'1312.7 060 / 131023.2 8.8 14.8
2014-Sep-18 16:00N 44°42' W 082°54'1312.7 060 / 91022.8 9.2 15.4
2014-Sep-18 15:00N 44°30' W 082°48'1312.7 070 / 161021.5 9.6 16.8
2014-Sep-18 14:00N 44°18' W 082°42'1312.7 040 / 151020.410.8 1.5 9.8 15.5
2014-Sep-18 13:00N 44°06' W 082°36'1312.8 020 / 171019.8 10.5 17.1
2014-Sep-18 12:00N 43°54' W 082°30'2412.0 1018.8 12.0 16.8
2014-Sep-18 10:00N 43°30' W 082°30'1312.8 020 / 111017.4 14.0 17.2
2014-Sep-18 09:00N 43°18' W 082°24'24 6.1 010 / 131016.4 14.9 18.5
2014-Sep-18 05:00N 42°54' W 082°30'6 3.0 280 / 31016.4 12.4 18.1
2014-Sep-18 03:00N 42°48' W 082°30'1212.0 220 / 11016.0 13.0 18.1
2014-Sep-18 02:00N 42°36' W 082°30'1110.7 250 / 21016.0 12.2 17.9
2014-Sep-18 01:00N 42°30' W 082°42'1110.7 280 / 31015.5 16.9 18.1
2014-Sep-18 00:00N 42°24' W 082°54'1110.7 030 / 41015.2 17.4 17.9
2014-Sep-17 23:00N 42°18' W 083°06'18 9.0 290 / 51015.5 18.5 18.4
2014-Sep-17 21:00N 42°00' W 083°06'6 6.0 270 / 81015.7 18.0 18.6
2014-Sep-17 20:00N 41°54' W 083°06'9 8.9 250 / 61016.1 17.9 19.4
2014-Sep-17 19:00N 41°54' W 083°18'0 0.0 300 / 71016.4 18.4 20.3
2014-Sep-17 18:00N 41°54' W 083°18'0 0.0 180 / 11016.8 18.7 19.9
2014-Sep-17 17:00N 41°54' W 083°18'0 0.0 210 / 11017.1 16.9 19.9
2014-Sep-17 14:00N 41°54' W 083°18'0 0.0 260 / 41018.1 12.9 20.0
2014-Sep-17 13:00N 41°54' W 083°18'0 0.0 350 / 61018.5 11.0 20.1
2014-Sep-17 12:00N 41°54' W 083°18'0 0.0 340 / 61018.1 9.5 20.1
2014-Sep-17 11:00N 41°54' W 083°18'0 0.0 350 / 71018.1 9.2 20.2
2014-Sep-17 10:00N 41°54' W 083°18'4 2.2 290 / 51018.1 10.1 20.4
2014-Sep-17 08:00N 41°54' W 083°12'0 0.0 250 / 81018.1 13.5 19.6
2014-Sep-17 07:00N 41°54' W 083°12'0 0.0 320 / 61018.5 14.3 19.7
2014-Sep-17 06:00N 41°54' W 083°12'0 0.0 330 / 91018.5 14.2 19.8
2014-Sep-17 04:00N 41°54' W 083°12'0 0.0 300 / 81018.8 17.2 20.0
2014-Sep-17 03:00N 41°54' W 083°12'0 0.0 270 / 61018.8 17.2 20.0
2014-Sep-17 02:00N 41°54' W 083°12'0 0.0 270 / 71018.8 17.6 20.0
2014-Sep-17 01:00N 41°54' W 083°12'0 0.0 280 / 61018.8 17.7 20.0
2014-Sep-17 00:00N 41°54' W 083°12'0 0.0 270 / 71018.8 17.7 20.0
2014-Sep-16 23:00N 41°54' W 083°12'0 0.0 200 / 41019.1 17.5 19.9
2014-Sep-16 22:00N 41°54' W 083°12'0 0.0 130 / 31019.1 17.2 19.9
2014-Sep-16 21:00N 41°54' W 083°12'4 4.5 180 / 41019.1 16.4 20.0
2014-Sep-16 20:00N 41°54' W 083°06'2412.0 220 / 71019.5 15.6 19.3
2014-Sep-16 18:00N 42°18' W 083°06'18 9.0 090 / 21020.3 16.4 18.1
2014-Sep-16 16:00N 42°30' W 082°48'1110.7 010 / 41021.6 12.8 17.8
2014-Sep-16 15:00N 42°36' W 082°36'7 7.4 300 / 51021.5 12.9 18.0
2014-Sep-16 14:00N 42°42' W 082°30'6 6.0 310 / 61021.5 12.2 18.2
2014-Sep-16 13:00N 42°48' W 082°30'0 0.0 260 / 11021.1 10.0 20.1
2014-Sep-16 12:00N 42°48' W 082°30'0 0.0 040 / 11021.1 9.6 20.3
2014-Sep-16 11:00N 42°48' W 082°30'0 0.0 040 / 11020.8 9.9 20.3
2014-Sep-16 10:00N 42°48' W 082°30'0 0.0 100 / 11020.1 9.6 20.2
2014-Sep-16 08:00N 42°48' W 082°30'0 0.0 010 / 11020.1 10.3 20.2
2014-Sep-16 04:00N 42°48' W 082°30'13 6.4 010 / 71019.1 12.9 18.5
2014-Sep-16 02:00N 43°00' W 082°24'6 6.0 310 / 61019.1 13.4 18.1
2014-Sep-16 01:00N 43°06' W 082°24'1212.0 330 / 131019.1 14.5 18.7
2014-Sep-16 00:00N 43°18' W 082°24'1212.0 290 / 121019.1 14.1 17.9
2014-Sep-15 23:00N 43°30' W 082°24'1212.0 280 / 111018.4 14.3 17.7
2014-Sep-15 22:00N 43°42' W 082°24'3712.3 330 / 91018.4 14.0 17.5
2014-Sep-15 19:00N 44°18' W 082°36'1312.7 270 / 121019.4 13.8 15.7
2014-Sep-15 18:00N 44°30' W 082°42'3812.7 240 / 141019.1 13.6 17.3
2014-Sep-15 15:00N 45°06' W 083°00'2211.0 260 / 81019.4 11.7 12.2
2014-Sep-15 13:00N 45°24' W 083°18'1518.0 260 / 141019.1 11.6 12.1
2014-Sep-15 12:10N 45°36' W 083°31'0 2.5
2014-Sep-15 12:00N 45°36' W 083°30'1016.9 250 / 121019.1 12.0 13.0
2014-Sep-15 11:22N 45°44' W 083°40'1112.6
2014-Sep-15 10:28N 45°53' W 083°50'3 6.5
2014-Sep-15 10:00N 45°54' W 083°54'818.3 270 / 121018.1 13.1 15.1
2014-Sep-15 09:33N 46°02' W 083°55'5 9.3
2014-Sep-15 09:00N 46°06' W 084°00'4 9.0 240 / 91018.1 11.6 14.8
2014-Sep-15 08:33N 46°09' W 084°03'3 6.0
2014-Sep-15 08:00N 46°12' W 084°06'7 7.3 230 / 101018.1 11.4 14.5
2014-Sep-15 07:00N 46°18' W 084°12'2 5.3 190 / 21018.1 9.6 14.6
2014-Sep-15 06:33N 46°20' W 084°13'4 6.8
2014-Sep-15 06:00N 46°24' W 084°12'7 7.3 050 / 21017.7 10.9 14.8
2014-Sep-15 05:00N 46°30' W 084°18'4 2.1 220 / 51018.1 11.6 14.9
2014-Sep-15 03:00N 46°30' W 084°24'8 8.3 160 / 51017.9 10.6 15.0
2014-Sep-15 02:00N 46°30' W 084°36'7 7.3 200 / 161017.3 12.3 15.1
2014-Sep-15 01:00N 46°36' W 084°42'1514.6 210 / 211015.9 13.4 15.1
2014-Sep-15 00:00N 46°48' W 084°54'2411.9 220 / 221015.9 13.4 14.6
2014-Sep-14 22:00N 47°00' W 085°24'10012.5 200 / 181017.310.8 1.011.4 12.4
2014-Sep-14 14:00N 47°36' W 087°42'1413.5 180 / 191017.3 10.5 9.6
2014-Sep-14 13:00N 47°30' W 088°00'1212.2 190 / 231017.610.8 1.010.3 8.8
2014-Sep-14 12:00N 47°30' W 088°18'2412.2 180 / 201018.3 10.0 10.1
2014-Sep-14 10:00N 47°30' W 088°54'1413.6 160 / 201019.0 8.9 9.3
2014-Sep-14 09:00N 47°24' W 089°12'3712.4 180 / 201019.3 9.1 10.0
2014-Sep-14 06:00N 47°18' W 090°06'1212.2 180 / 181020.7 10.7 9.8
2014-Sep-14 05:00N 47°18' W 090°24'1212.2 180 / 171021.0 11.6 11.5
2014-Sep-14 04:00N 47°18' W 090°42'2411.8 180 / 181021.0 12.0 11.7
2014-Sep-14 02:00N 47°06' W 091°12'1413.7 170 / 121022.4 11.6 13.8
2014-Sep-14 01:00N 47°00' W 091°30'2411.9 180 / 111022.7 11.9 13.1
2014-Sep-13 23:00N 46°48' W 092°00'7 7.3 180 / 141022.7 13.3 14.3
2014-Sep-13 22:00N 46°42' W 092°06'0 0.0 200 / 61023.0 15.0 16.4
2014-Sep-13 21:00N 46°42' W 092°06'0 0.0 230 / 141023.0 15.0 16.4
2014-Sep-13 19:00N 46°42' W 092°06'0 0.0 250 / 91024.4 14.9 16.3
2014-Sep-13 18:00N 46°42' W 092°06'0 0.0 200 / 101025.1 14.3 16.2
2014-Sep-13 17:00N 46°42' W 092°06'0 0.0 230 / 91025.4 14.7 16.2
2014-Sep-13 16:00N 46°42' W 092°06'0 0.0 210 / 81026.1 13.8 16.1
2014-Sep-13 14:00N 46°42' W 092°06'6 2.0 200 / 51026.8 9.0 16.1
2014-Sep-13 11:00N 46°48' W 092°06'0 0.0 240 / 51026.4 5.1 15.7
2014-Sep-13 09:00N 46°48' W 092°06'1413.7 280 / 41026.4 7.6 14.2
2014-Sep-13 08:00N 46°54' W 091°48'1212.3 200 / 61025.7 9.7 14.8
2014-Sep-13 07:00N 46°54' W 091°30'2713.7 300 / 71025.710.8 9.6 9.2
2014-Sep-13 05:00N 47°06' W 090°54'1212.3 290 / 61025.7 10.3 14.5
2014-Sep-13 04:00N 47°06' W 090°36'5413.6 220 / 61025.7 10.1 13.2
2014-Sep-13 00:00N 47°18' W 089°18'1413.6 320 / 61026.4 8.0 10.1
2014-Sep-12 23:00N 47°24' W 089°00'1212.2 240 / 41026.410.8 0.5 8.0 9.9
2014-Sep-12 22:00N 47°24' W 088°42'4113.7 180 / 31026.8 7.9 9.3
2014-Sep-12 19:00N 47°30' W 087°42'1413.6 080 / 71028.1 7.7 9.1
2014-Sep-12 18:00N 47°24' W 087°24'10413.1 080 / 61028.4 7.4 8.6
2014-Sep-12 10:00N 46°48' W 085°00'2412.2 040 / 91027.1 7.8 15.5
2014-Sep-12 08:00N 46°30' W 084°36'8 8.3 040 / 111026.1 7.5 15.5
2014-Sep-12 07:00N 46°30' W 084°24'0 0.0 020 / 61026.1 5.8 15.8
2014-Sep-12 06:00N 46°30' W 084°24'4 4.1 360 / 41026.8 5.4 16.5
2014-Sep-12 05:00N 46°30' W 084°18'7 7.3 1025.2 7.1 15.9
2014-Sep-12 04:00N 46°24' W 084°12'20 9.9 040 / 131023.8 8.3 16.2
2014-Sep-12 02:00N 46°06' W 084°00'2 5.0 350 / 111022.8 9.6 16.9
2014-Sep-12 01:33N 46°04' W 083°60'1811.4
2014-Sep-12 00:00N 45°48' W 083°48'5112.8 1020.8 11.5 14.0
2014-Sep-11 20:00N 45°06' W 083°06'4210.5 330 / 161018.1 11.0 13.3
2014-Sep-11 16:00N 44°24' W 083°06'1514.8 320 / 161015.0 9.3 18.0
2014-Sep-11 15:00N 44°12' W 082°54'1010.5 320 / 201014.7 9.4 18.1
2014-Sep-11 14:00N 44°06' W 082°42'1312.8 300 / 191013.3 10.7 18.3
2014-Sep-11 13:00N 43°54' W 082°36'1312.8 310 / 201012.310.8 2.510.9 16.1
2014-Sep-11 12:00N 43°42' W 082°30'1212.0 290 / 181011.3 10.9 16.5
2014-Sep-11 11:00N 43°30' W 082°30'1312.8 290 / 231009.9 5.4 1.012.3 18.5
2014-Sep-11 10:00N 43°18' W 082°24'30 7.6 290 / 211008.3 13.4 19.6
2014-Sep-11 06:00N 42°48' W 082°30'0 0.0 310 / 51003.5 22.3 22.7
2014-Sep-11 05:00N 42°48' W 082°30'   280 / 41002.8 22.7 22.9
Track history (hours):
 
Tides and Currents Weather Stations Pressure Air Temp Water Temp Dewpoint Dewpoint Depression Visibility Wind Speed Wind Dir Waves Ship Positions

Paul R Tregurtha

More information available from US FCC via Universal Licensing System and Coast Guard Vessel Documentation Center.

Last reported at 2014-Sep-21 04:00 UTC. Time now 2014-Sep-21 06:02 UTC.
Position N 46°48' W 092°06'.

Length 308 m; draft 6.4 m.

Type: Cargo ship. MMSI: 366904940.

Wind from 280 at 5 knots

Barometer 1007.1 mb
Air temperature 13.5 ° C
Water temperature 14.2 ° C

Date/timePositionNaut miles runAvg speedWind from/ knotsBaromVisibWave heightAir tempDewpointWater temp
2014-Sep-21 04:00N 46°48' W 092°06'0 0.0 280 / 51007.1 13.5 14.2
2014-Sep-21 03:00N 46°48' W 092°06'0 0.0 260 / 21006.8 13.5 14.3
2014-Sep-21 02:00N 46°48' W 092°06'0 0.0 220 / 51006.8 13.7 14.3
2014-Sep-21 01:00N 46°48' W 092°06'0 0.0 200 / 41006.4 13.8 14.2
2014-Sep-21 00:00N 46°48' W 092°06'0 0.0 290 / 151005.8 15.1 14.0
2014-Sep-20 23:00N 46°48' W 092°06'0 0.0 280 / 51006.1 19.3 15.3
2014-Sep-20 22:00N 46°48' W 092°06'0 0.0 260 / 51005.8 20.5 15.4
2014-Sep-20 21:00N 46°48' W 092°06'0 0.0 260 / 101006.4 20.7 15.2
2014-Sep-20 20:00N 46°48' W 092°06'6 3.0 260 / 81006.8 20.9 14.0
2014-Sep-20 18:00N 46°42' W 092°06'0 0.0 260 / 91007.8 19.5 15.0
2014-Sep-20 16:00N 46°42' W 092°06'0 0.0 300 / 161007.8 17.3 14.9
2014-Sep-20 15:00N 46°42' W 092°06'0 0.0 290 / 161007.5 17.5 15.0
2014-Sep-20 13:00N 46°42' W 092°06'0 0.0 1005.8 18.3 14.9
2014-Sep-20 11:00N 46°42' W 092°06'0 0.0 270 / 121003.4 19.1 14.8
2014-Sep-20 10:00N 46°42' W 092°06'0 0.0 230 / 71002.7 19.2 14.8
2014-Sep-20 09:00N 46°42' W 092°06'7 3.6 230 / 81002.4 18.7 14.8
2014-Sep-20 07:00N 46°48' W 092°00'1413.7 200 / 21003.0 16.1 13.1
2014-Sep-20 06:00N 46°54' W 091°42'1413.7 190 / 151003.0 17.0 14.0
2014-Sep-20 05:00N 47°00' W 091°24'2512.6 190 / 141003.0 15.9 12.3
2014-Sep-20 03:00N 47°06' W 090°48'1413.6 190 / 101003.7 14.1 11.5
2014-Sep-20 02:00N 47°12' W 090°30'6212.4 180 / 51004.1 12.9 10.9
2014-Sep-19 21:00N 47°24' W 089°00'1212.2 220 / 131005.110.8 1.012.5 7.9
2014-Sep-19 20:00N 47°24' W 088°42'1413.6 190 / 181005.8 12.6 8.5
2014-Sep-19 19:00N 47°30' W 088°24'1212.2 190 / 181006.4 15.5 8.4
2014-Sep-19 18:00N 47°30' W 088°06'1616.2 180 / 141009.1 16.9 8.5
2014-Sep-19 17:00N 47°30' W 087°42'11412.7 150 / 191011.2 11.6 8.6
2014-Sep-19 08:00N 46°48' W 085°06'2412.2 160 / 231022.0 8.7 12.1
2014-Sep-19 06:00N 46°30' W 084°42'813.4 140 / 161022.7 8.8 14.6
2014-Sep-19 05:23N 46°27' W 084°31'6 4.0
2014-Sep-19 04:00N 46°30' W 084°24'10 5.1 130 / 21024.7 7.0 14.6
2014-Sep-19 02:00N 46°24' W 084°12'40 9.9 150 / 91023.5 8.1 14.5
2014-Sep-18 22:00N 45°48' W 083°48'1514.6 120 / 81023.5 8.5 14.0
2014-Sep-18 21:00N 45°36' W 083°36'1514.7 120 / 61023.5 8.2 12.9
2014-Sep-18 20:00N 45°24' W 083°24'2211.0 020 / 61023.8 8.0 12.5
2014-Sep-18 18:00N 45°06' W 083°06'1312.7 030 / 51024.2 8.4 12.4
2014-Sep-18 17:00N 44°54' W 083°00'1312.7 060 / 131023.2 8.8 14.8
2014-Sep-18 16:00N 44°42' W 082°54'1312.7 060 / 91022.8 9.2 15.4
2014-Sep-18 15:00N 44°30' W 082°48'1312.7 070 / 161021.5 9.6 16.8
2014-Sep-18 14:00N 44°18' W 082°42'1312.7 040 / 151020.410.8 1.5 9.8 15.5
2014-Sep-18 13:00N 44°06' W 082°36'1312.8 020 / 171019.8 10.5 17.1
2014-Sep-18 12:00N 43°54' W 082°30'2412.0 1018.8 12.0 16.8
2014-Sep-18 10:00N 43°30' W 082°30'1312.8 020 / 111017.4 14.0 17.2
2014-Sep-18 09:00N 43°18' W 082°24'24 6.1 010 / 131016.4 14.9 18.5
2014-Sep-18 05:00N 42°54' W 082°30'6 3.0 280 / 31016.4 12.4 18.1
2014-Sep-18 03:00N 42°48' W 082°30'1212.0 220 / 11016.0 13.0 18.1
2014-Sep-18 02:00N 42°36' W 082°30'1110.7 250 / 21016.0 12.2 17.9
2014-Sep-18 01:00N 42°30' W 082°42'1110.7 280 / 31015.5 16.9 18.1
2014-Sep-18 00:00N 42°24' W 082°54'1110.7 030 / 41015.2 17.4 17.9
2014-Sep-17 23:00N 42°18' W 083°06'18 9.0 290 / 51015.5 18.5 18.4
2014-Sep-17 21:00N 42°00' W 083°06'6 6.0 270 / 81015.7 18.0 18.6
2014-Sep-17 20:00N 41°54' W 083°06'9 8.9 250 / 61016.1 17.9 19.4
2014-Sep-17 19:00N 41°54' W 083°18'0 0.0 300 / 71016.4 18.4 20.3
2014-Sep-17 18:00N 41°54' W 083°18'0 0.0 180 / 11016.8 18.7 19.9
2014-Sep-17 17:00N 41°54' W 083°18'0 0.0 210 / 11017.1 16.9 19.9
2014-Sep-17 14:00N 41°54' W 083°18'0 0.0 260 / 41018.1 12.9 20.0
2014-Sep-17 13:00N 41°54' W 083°18'0 0.0 350 / 61018.5 11.0 20.1
2014-Sep-17 12:00N 41°54' W 083°18'0 0.0 340 / 61018.1 9.5 20.1
2014-Sep-17 11:00N 41°54' W 083°18'0 0.0 350 / 71018.1 9.2 20.2
2014-Sep-17 10:00N 41°54' W 083°18'4 2.2 290 / 51018.1 10.1 20.4
2014-Sep-17 08:00N 41°54' W 083°12'0 0.0 250 / 81018.1 13.5 19.6
2014-Sep-17 07:00N 41°54' W 083°12'0 0.0 320 / 61018.5 14.3 19.7
2014-Sep-17 06:00N 41°54' W 083°12'0 0.0 330 / 91018.5 14.2 19.8
2014-Sep-17 04:00N 41°54' W 083°12'0 0.0 300 / 81018.8 17.2 20.0
2014-Sep-17 03:00N 41°54' W 083°12'0 0.0 270 / 61018.8 17.2 20.0
2014-Sep-17 02:00N 41°54' W 083°12'0 0.0 270 / 71018.8 17.6 20.0
2014-Sep-17 01:00N 41°54' W 083°12'0 0.0 280 / 61018.8 17.7 20.0
2014-Sep-17 00:00N 41°54' W 083°12'0 0.0 270 / 71018.8 17.7 20.0
2014-Sep-16 23:00N 41°54' W 083°12'0 0.0 200 / 41019.1 17.5 19.9
2014-Sep-16 22:00N 41°54' W 083°12'0 0.0 130 / 31019.1 17.2 19.9
2014-Sep-16 21:00N 41°54' W 083°12'4 4.5 180 / 41019.1 16.4 20.0
2014-Sep-16 20:00N 41°54' W 083°06'2412.0 220 / 71019.5 15.6 19.3
2014-Sep-16 18:00N 42°18' W 083°06'18 9.0 090 / 21020.3 16.4 18.1
2014-Sep-16 16:00N 42°30' W 082°48'1110.7 010 / 41021.6 12.8 17.8
2014-Sep-16 15:00N 42°36' W 082°36'7 7.4 300 / 51021.5 12.9 18.0
2014-Sep-16 14:00N 42°42' W 082°30'6 6.0 310 / 61021.5 12.2 18.2
2014-Sep-16 13:00N 42°48' W 082°30'0 0.0 260 / 11021.1 10.0 20.1
2014-Sep-16 12:00N 42°48' W 082°30'0 0.0 040 / 11021.1 9.6 20.3
2014-Sep-16 11:00N 42°48' W 082°30'0 0.0 040 / 11020.8 9.9 20.3
2014-Sep-16 10:00N 42°48' W 082°30'0 0.0 100 / 11020.1 9.6 20.2
2014-Sep-16 08:00N 42°48' W 082°30'0 0.0 010 / 11020.1 10.3 20.2
2014-Sep-16 04:00N 42°48' W 082°30'13 6.4 010 / 71019.1 12.9 18.5
2014-Sep-16 02:00N 43°00' W 082°24'6 6.0 310 / 61019.1 13.4 18.1
2014-Sep-16 01:00N 43°06' W 082°24'1212.0 330 / 131019.1 14.5 18.7
2014-Sep-16 00:00N 43°18' W 082°24'1212.0 290 / 121019.1 14.1 17.9
2014-Sep-15 23:00N 43°30' W 082°24'1212.0 280 / 111018.4 14.3 17.7
2014-Sep-15 22:00N 43°42' W 082°24'3712.3 330 / 91018.4 14.0 17.5
2014-Sep-15 19:00N 44°18' W 082°36'1312.7 270 / 121019.4 13.8 15.7
2014-Sep-15 18:00N 44°30' W 082°42'3812.7 240 / 141019.1 13.6 17.3
2014-Sep-15 15:00N 45°06' W 083°00'2211.0 260 / 81019.4 11.7 12.2
2014-Sep-15 13:00N 45°24' W 083°18'1518.0 260 / 141019.1 11.6 12.1
2014-Sep-15 12:10N 45°36' W 083°31'0 2.5
2014-Sep-15 12:00N 45°36' W 083°30'1016.9 250 / 121019.1 12.0 13.0
2014-Sep-15 11:22N 45°44' W 083°40'1112.6
2014-Sep-15 10:28N 45°53' W 083°50'3 6.5
2014-Sep-15 10:00N 45°54' W 083°54'818.3 270 / 121018.1 13.1 15.1
2014-Sep-15 09:33N 46°02' W 083°55'5 9.3
2014-Sep-15 09:00N 46°06' W 084°00'4 9.0 240 / 91018.1 11.6 14.8
2014-Sep-15 08:33N 46°09' W 084°03'3 6.0
2014-Sep-15 08:00N 46°12' W 084°06'7 7.3 230 / 101018.1 11.4 14.5
2014-Sep-15 07:00N 46°18' W 084°12'2 5.3 190 / 21018.1 9.6 14.6
2014-Sep-15 06:33N 46°20' W 084°13'4 6.8
2014-Sep-15 06:00N 46°24' W 084°12'7 7.3 050 / 21017.7 10.9 14.8
2014-Sep-15 05:00N 46°30' W 084°18'4 2.1 220 / 51018.1 11.6 14.9
2014-Sep-15 03:00N 46°30' W 084°24'8 8.3 160 / 51017.9 10.6 15.0
2014-Sep-15 02:00N 46°30' W 084°36'7 7.3 200 / 161017.3 12.3 15.1
2014-Sep-15 01:00N 46°36' W 084°42'1514.6 210 / 211015.9 13.4 15.1
2014-Sep-15 00:00N 46°48' W 084°54'2411.9 220 / 221015.9 13.4 14.6
2014-Sep-14 22:00N 47°00' W 085°24'10012.5 200 / 181017.310.8 1.011.4 12.4
2014-Sep-14 14:00N 47°36' W 087°42'1413.5 180 / 191017.3 10.5 9.6
2014-Sep-14 13:00N 47°30' W 088°00'1212.2 190 / 231017.610.8 1.010.3 8.8
2014-Sep-14 12:00N 47°30' W 088°18'2412.2 180 / 201018.3 10.0 10.1
2014-Sep-14 10:00N 47°30' W 088°54'1413.6 160 / 201019.0 8.9 9.3
2014-Sep-14 09:00N 47°24' W 089°12'3712.4 180 / 201019.3 9.1 10.0
2014-Sep-14 06:00N 47°18' W 090°06'1212.2 180 / 181020.7 10.7 9.8
2014-Sep-14 05:00N 47°18' W 090°24'1212.2 180 / 171021.0 11.6 11.5
2014-Sep-14 04:00N 47°18' W 090°42'2411.8 180 / 181021.0 12.0 11.7
2014-Sep-14 02:00N 47°06' W 091°12'1413.7 170 / 121022.4 11.6 13.8
2014-Sep-14 01:00N 47°00' W 091°30'2411.9 180 / 111022.7 11.9 13.1
2014-Sep-13 23:00N 46°48' W 092°00'7 7.3 180 / 141022.7 13.3 14.3
2014-Sep-13 22:00N 46°42' W 092°06'0 0.0 200 / 61023.0 15.0 16.4
2014-Sep-13 21:00N 46°42' W 092°06'0 0.0 230 / 141023.0 15.0 16.4
2014-Sep-13 19:00N 46°42' W 092°06'0 0.0 250 / 91024.4 14.9 16.3
2014-Sep-13 18:00N 46°42' W 092°06'0 0.0 200 / 101025.1 14.3 16.2
2014-Sep-13 17:00N 46°42' W 092°06'0 0.0 230 / 91025.4 14.7 16.2
2014-Sep-13 16:00N 46°42' W 092°06'0 0.0 210 / 81026.1 13.8 16.1
2014-Sep-13 14:00N 46°42' W 092°06'6 2.0 200 / 51026.8 9.0 16.1
2014-Sep-13 11:00N 46°48' W 092°06'0 0.0 240 / 51026.4 5.1 15.7
2014-Sep-13 09:00N 46°48' W 092°06'1413.7 280 / 41026.4 7.6 14.2
2014-Sep-13 08:00N 46°54' W 091°48'1212.3 200 / 61025.7 9.7 14.8
2014-Sep-13 07:00N 46°54' W 091°30'2713.7 300 / 71025.710.8 9.6 9.2
2014-Sep-13 05:00N 47°06' W 090°54'1212.3 290 / 61025.7 10.3 14.5
2014-Sep-13 04:00N 47°06' W 090°36'5413.6 220 / 61025.7 10.1 13.2
2014-Sep-13 00:00N 47°18' W 089°18'1413.6 320 / 61026.4 8.0 10.1
2014-Sep-12 23:00N 47°24' W 089°00'1212.2 240 / 41026.410.8 0.5 8.0 9.9
2014-Sep-12 22:00N 47°24' W 088°42'4113.7 180 / 31026.8 7.9 9.3
2014-Sep-12 19:00N 47°30' W 087°42'1413.6 080 / 71028.1 7.7 9.1
2014-Sep-12 18:00N 47°24' W 087°24'10413.1 080 / 61028.4 7.4 8.6
2014-Sep-12 10:00N 46°48' W 085°00'2412.2 040 / 91027.1 7.8 15.5
2014-Sep-12 08:00N 46°30' W 084°36'8 8.3 040 / 111026.1 7.5 15.5
2014-Sep-12 07:00N 46°30' W 084°24'0 0.0 020 / 61026.1 5.8 15.8
2014-Sep-12 06:00N 46°30' W 084°24'4 4.1 360 / 41026.8 5.4 16.5
2014-Sep-12 05:00N 46°30' W 084°18'7 7.3 1025.2 7.1 15.9
2014-Sep-12 04:00N 46°24' W 084°12'20 9.9 040 / 131023.8 8.3 16.2
2014-Sep-12 02:00N 46°06' W 084°00'2 5.0 350 / 111022.8 9.6 16.9
2014-Sep-12 01:33N 46°04' W 083°60'1811.4
2014-Sep-12 00:00N 45°48' W 083°48'5112.8 1020.8 11.5 14.0
2014-Sep-11 20:00N 45°06' W 083°06'4210.5 330 / 161018.1 11.0 13.3
2014-Sep-11 16:00N 44°24' W 083°06'1514.8 320 / 161015.0 9.3 18.0
2014-Sep-11 15:00N 44°12' W 082°54'1010.5 320 / 201014.7 9.4 18.1
2014-Sep-11 14:00N 44°06' W 082°42'1312.8 300 / 191013.3 10.7 18.3
2014-Sep-11 13:00N 43°54' W 082°36'1312.8 310 / 201012.310.8 2.510.9 16.1
2014-Sep-11 12:00N 43°42' W 082°30'1212.0 290 / 181011.3 10.9 16.5
2014-Sep-11 11:00N 43°30' W 082°30'1312.8 290 / 231009.9 5.4 1.012.3 18.5
2014-Sep-11 10:00N 43°18' W 082°24'30 7.6 290 / 211008.3 13.4 19.6
2014-Sep-11 06:00N 42°48' W 082°30'0 0.0 310 / 51003.5 22.3 22.7
2014-Sep-11 05:00N 42°48' W 082°30'   280 / 41002.8 22.7 22.9

Dump ship's entire track history